Time;durP1;ratioP1;P1;durP2;ratioP2;P2;SDS_P1;SDS_P2;PMS_P1;PMS_P2;Temp;Humidity;BMP_temperature;BMP_pressure;BME280_temperature;BME280_humidity;BME280_pressure;Samples;Min_cycle;Max_cycle;Signal;HPM_P1;HPM_P2
2022/03/23 00:02:36;;;;;;;18.42;8.38;;;;;;;7.72;30.00;101464.09;7710970;32;39326;-76
2022/03/23 00:06:52;;;;;;;17.83;8.88;;;;;;;7.59;29.96;101472.25;7711002;32;40500;-75
2022/03/23 00:11:08;;;;;;;15.95;8.43;;;;;;;7.50;30.36;101480.63;7711128;32;38499;-76
2022/03/23 00:15:24;;;;;;;13.88;8.30;;;;;;;6.81;34.52;101476.41;7710868;32;37112;-76
2022/03/23 00:19:40;;;;;;;14.98;8.13;;;;;;;7.13;32.25;101473.94;7710465;32;40084;-76
2022/03/23 00:23:56;;;;;;;15.35;8.20;;;;;;;7.03;33.10;101473.53;7709915;32;40893;-76
2022/03/23 00:28:12;;;;;;;15.48;8.65;;;;;;;6.90;33.69;101485.19;7710688;32;38714;-75
2022/03/23 00:32:28;;;;;;;14.48;8.75;;;;;;;6.88;33.13;101476.41;7710824;32;37140;-76
2022/03/23 00:36:44;;;;;;;13.73;8.02;;;;;;;6.92;31.69;101475.81;7710164;32;39465;-75
2022/03/23 00:41:00;;;;;;;18.83;8.45;;;;;;;6.95;31.21;101478.13;7710396;32;40781;-75
2022/03/23 00:45:17;;;;;;;15.20;8.40;;;;;;;6.80;31.47;101474.75;7709809;32;37935;-75
2022/03/23 00:49:33;;;;;;;18.17;9.88;;;;;;;7.06;30.94;101476.66;7710297;32;37204;-76
2022/03/23 00:53:49;;;;;;;17.40;8.75;;;;;;;7.11;31.26;101460.59;7709864;32;39164;-76
2022/03/23 00:58:05;;;;;;;18.05;9.73;;;;;;;7.23;31.05;101457.28;7709908;32;39656;-75
2022/03/23 01:02:21;;;;;;;18.15;8.90;;;;;;;7.08;31.18;101449.34;7710008;32;37502;-76
2022/03/23 01:06:38;;;;;;;15.57;8.60;;;;;;;7.24;30.56;101451.63;7709926;32;38062;-75
2022/03/23 01:10:54;;;;;;;18.08;9.15;;;;;;;7.31;30.35;101449.75;7709737;32;39228;-76
2022/03/23 01:15:11;;;;;;;19.12;9.43;;;;;;;7.14;30.76;101454.75;7709152;32;40763;-75
2022/03/23 01:19:27;;;;;;;16.45;8.43;;;;;;;6.70;35.97;101458.88;7709498;32;38660;-75
2022/03/23 01:23:46;;;;;;;15.35;8.85;;;;;;;6.84;34.63;101439.94;7709688;32;36896;-75
2022/03/23 01:28:03;;;;;;;15.98;9.38;;;;;;;6.53;33.14;101444.03;7709442;32;39217;-75
2022/03/23 01:32:19;;;;;;;16.30;8.50;;;;;;;6.41;34.65;101451.09;7709688;32;40351;-75
2022/03/23 01:36:36;;;;;;;17.17;8.57;;;;;;;6.10;35.23;101434.28;7712649;32;38501;-75
2022/03/23 01:40:52;;;;;;;15.80;8.55;;;;;;;6.15;34.22;101444.53;7712850;32;36823;-75
2022/03/23 01:45:09;;;;;;;18.27;8.80;;;;;;;6.15;33.66;101444.53;7712486;32;39045;-75
2022/03/23 01:49:25;;;;;;;14.70;7.95;;;;;;;6.38;32.86;101428.78;7712716;32;39832;-75
2022/03/23 01:53:41;;;;;;;13.23;7.93;;;;;;;6.72;31.74;101423.44;7712302;32;37921;-76
2022/03/23 01:57:58;;;;;;;18.45;8.57;;;;;;;6.51;31.42;101421.72;7983439;27;37651;-79
2022/03/23 02:02:14;;;;;;;13.65;8.18;;;;;;;6.68;31.45;101422.19;7752503;32;39337;-79
2022/03/23 02:06:31;;;;;;;13.45;7.95;;;;;;;6.77;31.79;101415.50;7752410;32;39899;-78
2022/03/23 02:10:47;;;;;;;17.58;8.68;;;;;;;6.63;31.78;101403.81;7765995;32;37680;-78
2022/03/23 02:15:12;;;;;;;16.95;9.05;;;;;;;6.29;33.70;101408.31;7765892;32;37831;-78
2022/03/23 02:19:28;;;;;;;12.95;7.55;;;;;;;6.25;37.20;101412.50;7766176;32;39266;-77
2022/03/23 02:23:45;;;;;;;19.15;8.68;;;;;;;6.10;34.95;101400.97;7766047;32;39862;-79
2022/03/23 02:28:01;;;;;;;14.10;7.72;;;;;;;6.08;33.44;101400.34;7765892;32;37842;-78
2022/03/23 02:32:17;;;;;;;15.40;8.05;;;;;;;6.52;32.05;101396.28;7752238;32;37115;-78
2022/03/23 02:36:33;;;;;;;12.45;7.37;;;;;;;6.35;32.08;101388.56;7765898;32;39718;-79
2022/03/23 02:40:49;;;;;;;14.15;8.45;;;;;;;6.36;31.99;101409.19;7786910;32;40713;-78
2022/03/23 02:45:07;;;;;;;15.68;7.97;;;;;;;6.48;31.94;101406.69;7788062;32;38589;-78
2022/03/23 02:49:23;;;;;;;15.65;8.35;;;;;;;6.41;32.11;101394.19;7752054;32;37688;-79
2022/03/23 03:02:50;;;;;;;17.60;8.82;;;;;;;5.76;34.17;101397.25;7765568;32;38678;-78
2022/03/23 03:07:06;;;;;;;20.70;8.85;;;;;;;5.53;33.50;101420.00;7765566;32;37210;-78
2022/03/23 03:11:23;;;;;;;16.50;8.15;;;;;;;5.60;34.03;101407.34;7765445;32;40123;-78
2022/03/23 03:15:39;;;;;;;16.77;8.30;;;;;;;5.45;34.00;101403.97;7765073;32;40741;-79
2022/03/23 03:19:55;;;;;;;14.45;8.88;;;;;;;5.30;34.10;101403.25;7765358;32;37857;-79
2022/03/23 03:24:11;;;;;;;16.35;8.38;;;;;;;5.18;34.88;101417.28;7765369;32;37066;-78
2022/03/23 03:28:27;;;;;;;15.15;8.27;;;;;;;5.49;34.48;101418.75;7765760;32;40028;-78
2022/03/23 03:32:45;;;;;;;13.62;7.65;;;;;;;5.42;34.42;101417.88;7765254;32;39591;-77
2022/03/23 03:37:01;;;;;;;13.57;7.55;;;;;;;5.27;34.57;101410.69;7765133;32;38643;-78
2022/03/23 03:41:17;;;;;;;14.18;8.32;;;;;;;5.57;33.74;101405.06;7765196;32;37733;-78
2022/03/23 03:45:33;;;;;;;17.45;8.77;;;;;;;5.42;33.51;101409.75;7764951;32;39859;-78
2022/03/23 03:49:49;;;;;;;15.00;8.65;;;;;;;4.69;38.97;101427.06;7765117;32;39738;-78
2022/03/23 03:54:05;;;;;;;14.20;8.38;;;;;;;5.11;38.68;101413.69;7764645;32;37896;-78
2022/03/23 03:58:21;;;;;;;16.92;7.95;;;;;;;5.11;37.79;101416.41;7763580;32;38177;-78
2022/03/23 04:02:38;;;;;;;16.77;9.07;;;;;;;5.22;35.01;101407.75;7764929;32;39590;-78
2022/03/23 04:06:54;;;;;;;16.67;8.75;;;;;;;5.10;34.91;101416.59;7764897;32;39994;-78
2022/03/23 04:11:10;;;;;;;12.35;7.80;;;;;;;5.34;34.36;101415.31;7764807;32;37842;-78
2022/03/23 04:15:26;;;;;;;16.30;8.77;;;;;;;5.28;34.54;101408.84;7764553;32;37069;-78
2022/03/23 04:19:43;;;;;;;15.05;8.07;;;;;;;4.73;35.57;101423.97;7764735;32;39324;-79
2022/03/23 04:23:58;;;;;;;14.32;8.07;;;;;;;5.15;34.56;101417.66;7764569;32;40293;-78
2022/03/23 04:28:14;;;;;;;14.20;7.30;;;;;;;5.27;34.21;101416.09;7764485;32;38650;-78
2022/03/23 04:32:31;;;;;;;13.20;7.40;;;;;;;5.39;33.97;101410.16;7764448;32;37107;-78
2022/03/23 04:36:48;;;;;;;14.07;8.10;;;;;;;5.48;33.81;101411.66;7764335;32;39427;-78
2022/03/23 04:41:04;;;;;;;14.20;8.43;;;;;;;5.39;33.87;101416.37;7764293;32;40869;-78
2022/03/23 04:45:20;;;;;;;18.20;8.90;;;;;;;5.41;34.02;101410.78;7764080;32;38006;-78
2022/03/23 04:49:36;;;;;;;16.87;8.18;;;;;;;5.36;33.93;101418.66;7764169;32;37245;-78
2022/03/23 04:53:53;;;;;;;15.95;8.20;;;;;;;5.28;33.96;101422.38;7763789;32;39288;-78
2022/03/23 04:58:09;;;;;;;13.38;7.10;;;;;;;5.61;33.68;101419.87;7763774;32;39934;-78
2022/03/23 05:02:27;;;;;;;16.23;7.05;;;;;;;5.57;33.65;101421.31;7763837;32;37835;-79
2022/03/23 05:06:44;;;;;;;15.68;7.30;;;;;;;5.71;33.71;101410.53;7737011;32;37940;-78
2022/03/23 05:11:00;;;;;;;14.68;8.00;;;;;;;5.58;33.53;101428.38;7740078;32;39284;-78
2022/03/23 05:15:16;;;;;;;13.77;8.40;;;;;;;5.39;34.07;101431.78;7756742;32;40740;-78
2022/03/23 05:19:32;;;;;;;13.98;7.90;;;;;;;5.34;34.73;101436.97;7766612;32;38712;-78
2022/03/23 05:23:48;;;;;;;16.20;9.05;;;;;;;5.60;34.25;101431.72;7766633;32;37360;-78
2022/03/23 05:28:08;;;;;;;15.07;7.37;;;;;;;5.36;34.68;101438.41;7766956;32;40073;-78
2022/03/23 05:32:24;;;;;;;14.00;7.95;;;;;;;5.54;34.39;101437.09;7753088;32;40000;-79
2022/03/23 05:36:40;;;;;;;11.57;6.90;;;;;;;5.51;34.40;101435.62;7766337;32;38748;-78
2022/03/23 05:40:59;;;;;;;14.05;7.47;;;;;;;5.69;34.12;101424.31;7752791;32;37878;-78
2022/03/23 05:45:16;;;;;;;16.70;8.35;;;;;;;5.70;34.20;101427.84;7766071;32;40025;-78
2022/03/23 05:49:33;;;;;;;17.17;8.63;;;;;;;4.96;41.66;101448.91;7766513;32;39994;-78
2022/03/23 05:53:49;;;;;;;15.15;9.27;;;;;;;5.18;40.50;101438.91;7766080;32;38589;-78
2022/03/23 05:58:05;;;;;;;15.68;8.02;;;;;;;5.50;38.89;101431.22;7766229;32;38098;-78
2022/03/23 06:02:21;;;;;;;14.27;8.90;;;;;;;5.62;35.50;101426.97;7766371;32;39104;-78
2022/03/23 06:06:37;;;;;;;15.45;8.30;;;;;;;5.38;41.33;101427.41;7765952;32;40715;-78
2022/03/23 06:10:53;;;;;;;15.18;7.50;;;;;;;5.67;40.00;101431.75;7766174;32;38581;-79
2022/03/23 06:15:11;;;;;;;15.50;8.30;;;;;;;6.17;36.80;101432.47;7765516;32;37108;-78
2022/03/23 06:19:27;;;;;;;18.73;8.43;;;;;;;6.03;37.28;101435.31;7765386;32;40004;-78
2022/03/23 06:23:43;;;;;;;15.98;7.30;;;;;;;6.22;36.90;101422.91;7765960;32;39811;-78
2022/03/23 06:27:59;;;;;;;19.60;8.63;;;;;;;6.63;35.58;101436.34;7766031;32;38449;-78
2022/03/23 06:32:16;;;;;;;14.32;8.15;;;;;;;6.42;38.12;101447.34;7766066;32;37027;-78
2022/03/23 06:36:32;;;;;;;13.13;7.35;;;;;;;6.88;36.96;101438.47;7765514;32;40099;-78
2022/03/23 06:40:48;;;;;;;28.92;8.60;;;;;;;7.33;32.90;101427.84;7765847;32;39915;-78
2022/03/23 06:45:04;;;;;;;16.37;10.02;;;;;;;7.49;34.27;101429.28;7771114;32;37843;-79
2022/03/23 06:49:20;;;;;;;19.45;10.20;;;;;;;7.72;33.57;101428.81;7765683;32;38512;-78
2022/03/23 06:53:36;;;;;;;18.02;9.30;;;;;;;8.17;33.00;101433.47;7765031;32;40040;-78
2022/03/23 06:57:53;;;;;;;16.20;8.63;;;;;;;8.26;33.85;101434.88;7765282;32;39982;-78
2022/03/23 07:02:10;;;;;;;20.55;8.88;;;;;;;8.45;33.88;101422.25;7751658;32;38638;-78
2022/03/23 07:06:27;;;;;;;17.45;9.90;;;;;;;8.64;33.67;101420.47;7765247;32;37886;-75
2022/03/23 07:10:43;;;;;;;17.98;8.88;;;;;;;8.37;38.29;101433.37;7765472;32;39976;-76
2022/03/23 07:14:59;;;;;;;17.50;9.30;;;;;;;9.39;37.90;101417.78;7764822;32;39884;-79
2022/03/23 07:19:16;;;;;;;24.48;9.10;;;;;;;9.58;35.81;101421.38;7765436;32;38417;-78
2022/03/23 07:23:34;;;;;;;23.65;10.05;;;;;;;9.68;33.86;101420.84;7764830;32;37879;-78
2022/03/23 07:27:51;;;;;;;17.15;8.80;;;;;;;9.99;32.97;101419.03;7765227;32;38293;-78
2022/03/23 07:32:08;;;;;;;17.12;7.45;;;;;;;10.41;31.29;101412.87;7757464;32;39760;-77
2022/03/23 07:36:24;;;;;;;17.25;8.05;;;;;;;11.00;28.65;101410.31;7756749;32;37511;-79
2022/03/23 07:40:41;;;;;;;15.88;8.00;;;;;;;11.45;26.94;101402.38;7765095;32;37119;-77
2022/03/23 07:44:57;;;;;;;21.77;8.02;;;;;;;11.62;25.15;101405.22;7749806;32;38006;-79
2022/03/23 07:49:14;;;;;;;13.35;8.02;;;;;;;12.23;25.55;101404.03;7758324;32;40807;-78
2022/03/23 07:53:30;;;;;;;17.55;8.00;;;;;;;12.66;25.17;101398.00;7763614;32;37923;-78
2022/03/23 07:57:46;;;;;;;19.75;8.30;;;;;;;13.03;25.43;101389.31;7750674;32;37179;-78
2022/03/23 08:02:03;;;;;;;18.17;8.48;;;;;;;13.31;26.92;101390.28;7740385;32;39130;-78
2022/03/23 08:06:20;;;;;;;20.33;10.57;;;;;;;13.86;24.52;101383.13;7736383;32;40155;-78
2022/03/23 08:10:40;;;;;;;16.60;7.90;;;;;;;14.38;22.28;101381.81;7764923;32;37925;-79
2022/03/23 08:14:56;;;;;;;15.20;7.65;;;;;;;15.05;20.69;101385.19;7764385;32;38091;-77
2022/03/23 08:19:12;;;;;;;22.13;8.15;;;;;;;15.48;20.64;101383.28;7764756;32;40085;-78
2022/03/23 08:23:30;;;;;;;16.05;7.95;;;;;;;16.26;19.19;101379.78;7757636;32;39913;-77
2022/03/23 08:27:46;;;;;;;17.87;7.62;;;;;;;16.85;18.53;101373.84;7737341;32;37892;-77
2022/03/23 08:32:02;;;;;;;20.40;8.45;;;;;;;17.08;18.05;101375.19;7745865;32;37820;-77
2022/03/23 08:36:19;;;;;;;11.35;7.57;;;;;;;17.42;17.14;101363.59;7762495;32;39983;-77
2022/03/23 08:40:35;;;;;;;15.98;8.15;;;;;;;17.39;16.87;101366.06;7763318;32;39754;-78
2022/03/23 08:44:52;;;;;;;15.05;7.50;;;;;;;17.84;16.50;101353.22;7757495;32;37880;-76
2022/03/23 08:49:08;;;;;;;18.42;8.25;;;;;;;17.91;16.40;101353.78;7761126;32;37940;-77
2022/03/23 08:53:26;;;;;;;19.20;8.43;;;;;;;18.21;15.94;101354.72;7763015;32;39312;-78
2022/03/23 08:57:42;;;;;;;20.52;8.20;;;;;;;18.39;15.77;101348.53;7762972;32;39912;-79
2022/03/23 09:01:58;;;;;;;14.18;7.57;;;;;;;18.50;15.90;101357.56;7761309;32;36731;-78
2022/03/23 09:06:14;;;;;;;23.30;8.30;;;;;;;19.16;15.52;101357.31;7762925;32;37125;-78
2022/03/23 09:10:30;;;;;;;16.30;7.85;;;;;;;19.51;15.80;101350.59;7751332;32;39322;-77
2022/03/23 09:14:46;;;;;;;17.17;7.00;;;;;;;19.52;14.63;101355.00;7763179;32;39896;-78
2022/03/23 09:19:03;;;;;;;16.20;7.28;;;;;;;19.57;14.00;101348.59;7763314;32;37943;-78
2022/03/23 09:23:19;;;;;;;13.93;6.87;;;;;;;19.89;13.94;101332.16;7763428;32;36911;-81
2022/03/23 09:27:42;;;;;;;13.32;6.65;;;;;;;19.57;13.73;101332.81;7763239;32;39857;-80
2022/03/23 09:31:58;;;;;;;12.43;6.30;;;;;;;20.50;13.12;101318.53;7763156;32;39742;-79
2022/03/23 09:40:51;;;;;;;17.02;6.15;;;;;;;20.98;11.98;101312.75;7762962;32;37337;-80
2022/03/23 09:45:08;;;;;;;9.70;5.22;;;;;;;20.96;12.00;101309.47;7748881;32;39391;-80
2022/03/23 09:49:25;;;;;;;13.15;5.32;;;;;;;21.49;11.41;101299.03;7762971;32;39984;-84
2022/03/23 09:53:42;;;;;;;13.40;6.37;;;;;;;21.47;11.75;101304.09;7763736;32;38643;-73
2022/03/23 09:58:00;;;;;;;13.65;6.12;;;;;;;22.03;11.71;101296.50;7752414;32;37890;-82
2022/03/23 10:02:39;;;;;;;14.60;6.32;;;;;;;21.70;11.65;101288.34;7766523;32;39265;-78
2022/03/23 10:07:27;;;;;;;10.13;5.37;;;;;;;22.36;10.44;101293.56;7766175;32;39782;-75
2022/03/23 10:12:02;;;;;;;9.48;5.22;;;;;;;22.45;11.58;101286.09;7765911;32;38655;-75
2022/03/23 10:16:55;;;;;;;10.73;5.40;;;;;;;23.27;10.51;101283.94;7763328;32;37088;-74
2022/03/23 10:21:11;;;;;;;11.75;5.37;;;;;;;23.23;9.72;101281.00;7763058;32;39183;-75
2022/03/23 10:25:28;;;;;;;12.07;5.43;;;;;;;23.78;9.82;101276.88;7764001;32;39795;-75
2022/03/23 10:29:49;;;;;;;12.82;5.07;;;;;;;23.95;9.84;101276.09;7765061;32;37413;-75
2022/03/23 10:34:08;;;;;;;11.75;5.25;;;;;;;23.97;8.86;101270.19;7766206;32;37681;-75
2022/03/23 10:38:25;;;;;;;10.88;5.07;;;;;;;23.97;9.36;101259.91;7766034;32;40184;-75
2022/03/23 10:42:44;;;;;;;8.90;4.85;;;;;;;24.79;8.72;101247.19;7765625;32;39912;-76
2022/03/23 10:47:05;;;;;;;8.82;4.65;;;;;;;24.81;7.95;101251.25;7766036;32;38119;-76
2022/03/23 10:51:29;;;;;;;11.98;4.53;;;;;;;25.28;8.58;101250.44;7766038;32;36821;-75
2022/03/23 10:55:48;;;;;;;9.50;4.20;;;;;;;25.50;7.44;101235.38;7765685;32;39162;-76
2022/03/23 11:00:06;;;;;;;7.37;3.12;;;;;;;25.78;7.08;101232.84;7765846;32;40155;-75
2022/03/23 11:04:23;;;;;;;8.63;3.50;;;;;;;26.38;6.12;101213.13;7751808;32;40202;-75
2022/03/23 11:08:41;;;;;;;7.10;3.35;;;;;;;26.47;6.04;101208.25;7765401;32;37110;-75
2022/03/23 11:17:32;;;;;;;34.63;19.15;;;;;;;26.94;5.32;101204.25;7765706;32;40053;-76
2022/03/23 11:22:12;;;;;;;11.57;4.65;;;;;;;26.56;6.58;101197.81;7765525;32;37648;-75
2022/03/23 11:26:28;;;;;;;7.85;4.25;;;;;;;25.43;6.50;101194.03;7765614;32;37204;-76
2022/03/23 11:30:46;;;;;;;6.53;3.58;;;;;;;25.51;6.42;101177.53;7765517;32;39993;-75
2022/03/23 11:35:02;;;;;;;7.43;3.53;;;;;;;25.73;5.64;101179.19;7765465;32;39880;-76
2022/03/23 11:39:22;;;;;;;13.52;3.42;;;;;;;26.29;5.67;101160.13;7765290;32;37796;-76
2022/03/23 11:43:38;;;;;;;8.85;3.42;;;;;;;26.74;5.97;101156.47;7765212;32;37238;-75
2022/03/23 11:48:37;;;;;;;10.10;4.12;;;;;;;27.08;4.64;101145.97;7765391;32;39450;-76
2022/03/23 11:53:06;;;;;;;9.13;3.72;;;;;;;26.79;5.29;101147.84;7752745;32;40580;-76
2022/03/23 11:57:22;;;;;;;10.07;4.50;;;;;;;27.24;5.91;101140.47;7764903;32;37920;-76
2022/03/23 12:01:38;;;;;;;13.10;3.97;;;;;;;27.62;5.42;101133.62;7765283;32;37339;-76
2022/03/23 12:05:54;;;;;;;11.18;4.32;;;;;;;28.15;5.85;101124.28;7764541;32;39384;-77
2022/03/23 12:10:21;;;;;;;7.93;4.25;;;;;;;28.17;4.80;101114.34;7764949;32;40749;-76
2022/03/23 12:14:39;;;;;;;8.38;4.28;;;;;;;28.39;4.87;101110.12;7764942;32;37556;-76
2022/03/23 12:19:02;;;;;;;8.32;4.18;;;;;;;28.46;5.36;101110.31;7763652;32;37186;-75
2022/03/23 12:23:35;;;;;;;8.70;4.22;;;;;;;29.02;4.52;101111.25;7764829;32;40090;-75
2022/03/23 12:28:18;;;;;;;9.30;4.15;;;;;;;28.87;5.52;101101.69;7751562;32;39722;-75
2022/03/23 12:32:38;;;;;;;10.10;4.12;;;;;;;29.10;4.58;101086.97;7761954;32;37876;-75
2022/03/23 12:36:58;;;;;;;8.90;4.18;;;;;;;28.60;4.73;101090.25;7750562;32;37353;-75
2022/03/23 12:41:16;;;;;;;9.52;4.10;;;;;;;28.66;4.59;101076.75;7764691;32;39398;-75
2022/03/23 12:45:34;;;;;;;8.75;4.00;;;;;;;28.16;5.16;101078.28;7764038;32;39941;-75
2022/03/23 12:59:35;;;;;;;6.90;3.58;;;;;;;28.92;3.47;101052.88;7764100;32;39371;-76
2022/03/23 13:03:53;;;;;;;13.98;4.45;;;;;;;29.33;3.98;101044.97;7763871;32;40727;-77
2022/03/23 13:08:30;;;;;;;8.60;3.83;;;;;;;29.54;3.55;101039.75;7763911;32;37864;-77
2022/03/23 13:12:46;;;;;;;10.07;3.97;;;;;;;29.70;3.10;101030.44;7755693;32;36626;-76
2022/03/23 13:17:04;;;;;;;9.23;4.60;;;;;;;29.05;3.32;101028.31;7761264;32;39561;-77
2022/03/23 13:21:21;;;;;;;7.18;3.90;;;;;;;29.32;3.13;101018.06;7759717;32;40306;-76
2022/03/23 13:25:37;;;;;;;8.35;3.47;;;;;;;28.76;3.94;101022.06;7761328;32;37570;-76
2022/03/23 13:29:59;;;;;;;7.05;3.78;;;;;;;28.39;3.84;101017.59;7750461;32;36753;-77
2022/03/23 13:34:17;;;;;;;8.65;3.60;;;;;;;28.76;3.51;101011.66;7765395;32;39230;-76
2022/03/23 13:38:47;;;;;;;10.07;3.65;;;;;;;28.08;3.92;101005.22;7754498;32;40576;-76
2022/03/23 13:43:22;;;;;;;7.75;3.90;;;;;;;27.80;4.06;101004.44;7738971;32;37609;-77
2022/03/23 13:47:44;;;;;;;9.40;4.25;;;;;;;27.65;4.20;100992.87;7739443;32;37080;-76
2022/03/23 13:52:03;;;;;;;7.78;4.30;;;;;;;27.92;4.23;100995.97;7755273;32;39813;-76
2022/03/23 13:56:19;;;;;;;8.57;3.90;;;;;;;27.43;4.68;100982.25;7757494;32;40796;-76
2022/03/23 14:00:37;;;;;;;8.25;3.80;;;;;;;26.88;4.79;100976.28;7765990;32;37736;-76
2022/03/23 14:04:53;;;;;;;6.87;3.83;;;;;;;27.67;4.48;100972.91;7765871;32;37499;-76
2022/03/23 14:09:10;;;;;;;7.53;3.92;;;;;;;27.98;4.70;100962.91;7766136;32;39858;-76
2022/03/23 14:13:26;;;;;;;8.07;3.90;;;;;;;27.88;3.86;100961.44;7765547;32;40812;-76
2022/03/23 14:17:43;;;;;;;8.15;3.87;;;;;;;27.18;4.51;100957.12;7765933;32;38743;-76
2022/03/23 14:22:02;;;;;;;8.85;4.03;;;;;;;26.73;5.02;100958.22;7752300;32;36934;-76
2022/03/23 14:26:37;;;;;;;7.30;3.47;;;;;;;26.91;4.80;100959.59;7765546;32;40099;-75
2022/03/23 14:31:00;;;;;;;10.23;3.90;;;;;;;27.09;4.52;100943.28;7765979;32;39943;-76
2022/03/23 14:35:40;;;;;;;11.50;4.20;;;;;;;27.09;4.82;100934.09;7765106;32;38658;-75
2022/03/23 14:39:58;;;;;;;9.45;3.90;;;;;;;26.68;4.96;100931.34;7764866;32;37836;-76
2022/03/23 14:44:30;;;;;;;9.43;3.85;;;;;;;27.07;4.44;100923.25;7765464;32;39338;-76
2022/03/23 14:49:00;;;;;;;8.37;4.10;;;;;;;27.26;4.82;100919.78;7753736;32;40899;-75
2022/03/23 14:53:17;;;;;;;10.13;3.80;;;;;;;27.20;4.31;100917.59;7765465;32;38206;-76
2022/03/23 14:57:34;;;;;;;7.43;3.95;;;;;;;27.30;4.77;100914.31;7751451;32;36831;-77
2022/03/23 15:01:56;;;;;;;7.12;3.62;;;;;;;27.58;4.67;100902.22;7765313;32;39397;-76
2022/03/23 15:15:25;;;;;;;5.87;2.90;;;;;;;26.62;4.53;100902.00;7764598;32;37140;-77
2022/03/23 15:19:41;;;;;;;8.82;3.62;;;;;;;26.49;4.97;100895.59;7765070;32;39881;-77
2022/03/23 15:24:01;;;;;;;7.03;3.42;;;;;;;26.16;4.21;100885.38;7765254;32;40579;-77
2022/03/23 15:28:17;;;;;;;10.80;4.05;;;;;;;26.22;4.21;100884.00;7765114;32;39395;-77
2022/03/23 15:32:34;;;;;;;11.18;3.55;;;;;;;26.23;4.63;100880.03;7764814;32;38153;-77
2022/03/23 15:36:50;;;;;;;7.75;3.55;;;;;;;26.19;4.80;100879.09;7765043;32;39604;-77
2022/03/23 15:41:06;;;;;;;7.72;3.42;;;;;;;25.48;4.97;100875.59;7764722;32;40146;-77
2022/03/23 15:45:23;;;;;;;13.18;4.12;;;;;;;25.66;4.64;100875.38;7763627;32;38699;-77
2022/03/23 15:49:43;;;;;;;7.80;3.85;;;;;;;25.31;5.52;100878.59;7765019;32;36899;-78
2022/03/23 15:53:59;;;;;;;8.55;4.20;;;;;;;25.10;5.81;100871.06;7764827;32;40463;-77
2022/03/23 15:58:15;;;;;;;8.30;3.80;;;;;;;24.81;6.03;100871.19;7764682;32;40614;-77
2022/03/23 16:02:35;;;;;;;8.07;3.78;;;;;;;25.36;5.69;100861.63;7764525;32;37897;-78
2022/03/23 16:06:52;;;;;;;19.37;5.20;;;;;;;25.32;5.98;100857.06;7764707;32;37138;-77
2022/03/23 16:11:08;;;;;;;11.63;4.43;;;;;;;27.08;5.04;100859.69;7764216;32;40173;-78
2022/03/23 16:15:24;;;;;;;12.65;5.60;;;;;;;27.00;5.30;100860.69;7750508;32;39936;-78
2022/03/23 16:19:42;;;;;;;15.50;5.12;;;;;;;29.79;4.12;100854.00;7750287;32;38596;-78
2022/03/23 16:23:58;;;;;;;13.30;5.25;;;;;;;32.01;3.12;100847.25;7764553;32;37835;-79
2022/03/23 16:28:14;;;;;;;9.23;4.53;;;;;;;33.06;2.57;100845.66;7764344;32;39610;-78
2022/03/23 16:32:30;;;;;;;13.32;4.68;;;;;;;33.20;2.34;100839.28;7764005;32;40015;-78
2022/03/23 16:36:56;;;;;;;14.00;5.45;;;;;;;33.01;2.41;100842.44;7763780;32;37831;-78
2022/03/23 16:45:47;;;;;;;9.57;4.85;;;;;;;32.01;2.75;100844.44;7763176;32;39988;-79
2022/03/23 16:50:03;;;;;;;17.05;5.85;;;;;;;30.99;3.17;100843.13;7763664;32;40138;-76
2022/03/23 16:54:21;;;;;;;17.52;5.45;;;;;;;29.86;3.87;100854.09;7763486;32;37688;-76
2022/03/23 16:58:38;;;;;;;13.25;6.05;;;;;;;28.15;4.77;100852.38;7763378;32;38174;-76
2022/03/23 17:16:38;;;;;;;11.38;5.47;;;;;;;23.90;6.95;100871.66;7762173;32;37109;-75
2022/03/23 17:20:56;;;;;;;12.05;6.10;;;;;;;23.38;7.52;100872.69;7762936;32;40084;-75
2022/03/23 17:25:13;;;;;;;12.70;5.60;;;;;;;22.65;7.98;100879.78;7763153;32;40091;-74
2022/03/23 17:29:32;;;;;;;14.23;6.45;;;;;;;22.28;8.53;100886.78;7762630;32;37654;-74
2022/03/23 17:33:48;;;;;;;14.27;6.37;;;;;;;21.67;9.32;100887.41;7744256;32;36170;-75
2022/03/23 17:38:07;;;;;;;11.02;6.00;;;;;;;21.11;9.86;100897.19;7735720;32;39284;-75
2022/03/23 17:42:23;;;;;;;32.65;6.93;;;;;;;20.87;10.06;100905.81;7737455;32;39972;-75
2022/03/23 17:46:39;;;;;;;19.45;6.85;;;;;;;20.72;10.42;100898.72;7746757;32;39186;-75
2022/03/23 17:50:55;;;;;;;20.58;9.82;;;;;;;20.02;11.26;100898.00;7739638;32;36887;-76
2022/03/23 17:55:11;;;;;;;24.73;8.90;;;;;;;19.57;11.32;100901.31;7721838;32;40018;-74
2022/03/23 17:59:27;;;;;;;13.95;7.53;;;;;;;19.29;12.22;100908.75;7733937;32;39794;-75
2022/03/23 18:03:43;;;;;;;25.83;15.48;;;;;;;19.10;12.32;100917.91;7734302;32;38717;-75
2022/03/23 18:07:59;;;;;;;14.57;8.23;;;;;;;18.81;12.43;100911.72;7738940;32;37121;-75
2022/03/23 18:12:15;;;;;;;25.45;9.75;;;;;;;18.53;12.40;100915.16;7761685;32;39840;-75
2022/03/23 18:16:32;;;;;;;16.15;7.55;;;;;;;18.54;12.53;100907.69;7763688;32;39883;-74
2022/03/23 18:20:50;;;;;;;18.27;8.32;;;;;;;18.30;12.96;100911.34;7765176;32;38084;-75
2022/03/23 18:25:08;;;;;;;18.40;7.90;;;;;;;17.98;12.85;100915.59;7766099;32;37295;-74
2022/03/23 18:29:24;;;;;;;16.30;7.82;;;;;;;17.83;13.52;100915.75;7765858;32;39127;-75
2022/03/23 18:33:40;;;;;;;13.88;6.68;;;;;;;17.58;13.75;100914.91;7751394;32;40080;-74
2022/03/23 18:38:02;;;;;;;15.55;7.05;;;;;;;17.36;13.89;100911.81;7750968;32;37968;-74
2022/03/23 18:42:18;;;;;;;12.95;6.55;;;;;;;17.06;14.32;100922.00;7748797;32;37837;-75
2022/03/23 18:46:36;;;;;;;16.85;9.50;;;;;;;16.80;14.83;100919.41;7756903;32;39292;-75
2022/03/23 18:50:52;;;;;;;16.02;7.65;;;;;;;16.66;15.38;100908.22;7765677;32;40151;-74
2022/03/23 18:55:09;;;;;;;27.15;8.15;;;;;;;16.46;15.19;100909.16;7764864;32;38687;-74
2022/03/23 18:59:25;;;;;;;16.37;7.68;;;;;;;16.45;15.19;100909.44;7765511;32;36923;-74
2022/03/23 19:03:42;;;;;;;16.42;7.03;;;;;;;16.24;15.98;100900.47;7765592;32;39905;-73
2022/03/23 19:07:57;;;;;;;13.02;7.28;;;;;;;15.94;15.73;100900.31;7764503;32;40118;-74
2022/03/23 19:12:13;;;;;;;19.48;6.72;;;;;;;15.75;16.13;100908.37;7753260;32;37860;-75
2022/03/23 19:16:31;;;;;;;19.35;8.20;;;;;;;15.59;16.57;100903.97;7738423;32;37095;-74
2022/03/23 19:20:48;;;;;;;12.27;6.93;;;;;;;15.63;16.06;100901.50;7738697;32;37603;-74
2022/03/23 19:25:05;;;;;;;16.58;6.87;;;;;;;15.39;16.39;100902.91;7753082;32;39995;-74
2022/03/23 19:29:21;;;;;;;19.80;7.28;;;;;;;15.43;16.32;100896.88;7764641;32;39132;-74
2022/03/23 19:33:38;;;;;;;13.88;6.72;;;;;;;15.11;16.76;100898.81;7764978;32;38295;-73
2022/03/23 19:37:56;;;;;;;11.48;6.55;;;;;;;15.28;16.29;100895.78;7765238;32;37906;-73
2022/03/23 19:42:13;;;;;;;14.18;6.60;;;;;;;14.90;17.14;100899.91;7763501;32;39901;-73
2022/03/23 19:46:29;;;;;;;12.05;6.15;;;;;;;14.87;16.99;100897.69;7764866;32;38687;-77
2022/03/23 19:50:52;;;;;;;14.05;7.12;;;;;;;14.96;16.85;100893.31;7765197;32;38046;-77
2022/03/23 19:55:09;;;;;;;12.83;6.67;;;;;;;14.26;17.64;100902.78;7765407;32;39400;-76
2022/03/23 19:59:25;;;;;;;14.98;6.72;;;;;;;14.38;17.61;100902.53;7764415;32;40751;-76
2022/03/23 20:03:43;;;;;;;14.02;6.37;;;;;;;14.16;17.83;100894.53;7764994;32;38058;-77
2022/03/23 20:07:59;;;;;;;11.65;6.40;;;;;;;14.25;17.35;100884.66;7765079;32;36259;-75
2022/03/23 20:12:18;;;;;;;9.82;5.50;;;;;;;14.25;17.06;100890.16;7764042;32;39959;-74
2022/03/23 20:16:34;;;;;;;10.65;5.85;;;;;;;14.19;17.17;100891.22;7764106;32;39999;-76
2022/03/23 20:20:51;;;;;;;12.70;5.75;;;;;;;13.96;17.74;100891.69;7764567;32;38087;-76
2022/03/23 20:25:07;;;;;;;18.33;6.95;;;;;;;13.85;17.86;100896.31;7764504;32;38454;-76
2022/03/23 20:29:23;;;;;;;13.75;6.50;;;;;;;13.51;17.99;100892.00;7764307;32;40029;-74
2022/03/23 20:33:40;;;;;;;11.57;6.03;;;;;;;13.53;17.89;100892.56;7764373;32;39866;-77
2022/03/23 20:37:56;;;;;;;12.23;6.85;;;;;;;13.50;17.94;100887.63;7763331;32;38011;-76
2022/03/23 20:42:12;;;;;;;12.82;5.78;;;;;;;13.27;18.54;100886.06;7763558;32;37814;-76
2022/03/23 20:46:32;;;;;;;11.95;5.90;;;;;;;13.40;18.21;100879.34;7764288;32;39282;-76
2022/03/23 20:50:54;;;;;;;15.05;6.47;;;;;;;13.21;18.58;100881.66;7763696;32;39914;-76
2022/03/23 20:55:12;;;;;;;11.43;5.75;;;;;;;13.19;18.47;100889.28;7764128;32;36822;-75